createdAt,value
2022-12-28T00:00:37.164Z,1.88
2022-12-28T00:02:08.780Z,1.54
2022-12-28T00:03:40.184Z,1.78
2022-12-28T00:05:11.492Z,1.89
2022-12-28T00:06:42.693Z,2.07
2022-12-28T00:08:14.084Z,2.11
2022-12-28T00:09:46.216Z,1.90
2022-12-28T00:11:27.555Z,1.83
2022-12-28T00:13:01.729Z,2.03
2022-12-28T00:14:33.226Z,1.82
2022-12-28T00:16:04.732Z,1.86
2022-12-28T00:17:36.306Z,1.77
2022-12-28T00:19:07.727Z,1.74
2022-12-28T00:20:39.457Z,1.58
2022-12-28T00:22:11.390Z,1.59
2022-12-28T00:23:42.774Z,1.79
2022-12-28T00:25:14.479Z,1.55
2022-12-28T00:26:45.866Z,1.69
2022-12-28T00:28:17.085Z,1.70
2022-12-28T00:29:50.084Z,1.95
2022-12-28T00:31:21.467Z,1.79
2022-12-28T00:32:52.837Z,1.76
2022-12-28T00:34:24.063Z,1.62
2022-12-28T00:35:55.410Z,1.41
2022-12-28T00:37:26.957Z,1.94
2022-12-28T00:38:58.159Z,1.91
2022-12-28T00:40:29.430Z,1.74
2022-12-28T00:42:01.893Z,1.74
2022-12-28T00:43:33.242Z,1.94
2022-12-28T00:45:04.849Z,2.03
2022-12-28T00:46:36.089Z,1.46
2022-12-28T00:48:07.310Z,1.64
2022-12-28T00:49:39.058Z,1.59
2022-12-28T00:51:10.396Z,1.59
2022-12-28T00:52:41.656Z,1.47
2022-12-28T00:54:13.268Z,1.69
2022-12-28T00:55:44.571Z,1.81
2022-12-28T00:57:15.790Z,1.53
2022-12-28T00:58:47.363Z,1.79
2022-12-28T01:00:18.713Z,1.64
2022-12-28T01:01:50.499Z,1.85
2022-12-28T01:03:21.864Z,1.62
2022-12-28T01:04:53.282Z,1.71
2022-12-28T01:06:24.551Z,1.72
2022-12-28T01:07:55.913Z,2.29
2022-12-28T01:09:27.375Z,2.38
2022-12-28T01:10:58.605Z,1.98
2022-12-28T01:12:34.677Z,1.84
2022-12-28T01:14:09.459Z,1.92
2022-12-28T01:15:40.846Z,2.02
2022-12-28T01:17:12.199Z,1.80
2022-12-28T01:18:43.729Z,1.86
2022-12-28T01:20:15.245Z,1.84
2022-12-28T01:21:46.713Z,1.98
2022-12-28T01:23:18.606Z,2.04
2022-12-28T01:24:49.983Z,1.96
2022-12-28T01:26:21.224Z,1.89
2022-12-28T01:27:52.446Z,2.02
2022-12-28T01:29:23.807Z,1.69
2022-12-28T01:30:55.182Z,1.65
2022-12-28T01:32:26.568Z,1.67
2022-12-28T01:33:57.900Z,2.25
2022-12-28T01:35:29.462Z,1.91
2022-12-28T01:37:00.749Z,1.50
2022-12-28T01:38:32.003Z,1.56
2022-12-28T01:40:03.246Z,1.60
2022-12-28T01:41:34.751Z,1.45
2022-12-28T01:43:10.937Z,1.60
2022-12-28T01:44:42.627Z,1.78
2022-12-28T01:46:13.990Z,1.72
2022-12-28T01:47:45.284Z,1.88
2022-12-28T01:49:16.711Z,2.04
2022-12-28T01:50:48.170Z,1.82
2022-12-28T01:52:19.787Z,1.77
2022-12-28T01:53:51.218Z,1.99
2022-12-28T01:55:22.454Z,1.89
2022-12-28T01:56:53.681Z,2.02
2022-12-28T01:58:25.040Z,1.84
2022-12-28T01:59:56.478Z,1.92
2022-12-28T02:01:27.961Z,2.03
2022-12-28T02:02:59.268Z,2.06
2022-12-28T02:04:30.653Z,1.95
2022-12-28T02:06:03.069Z,2.25
2022-12-28T02:07:34.327Z,1.64
2022-12-28T02:09:05.751Z,1.89
2022-12-28T02:10:44.692Z,1.49
2022-12-28T02:12:16.893Z,1.72
2022-12-28T02:13:48.048Z,1.86
2022-12-28T02:15:23.035Z,2.10
2022-12-28T02:16:54.734Z,2.05
2022-12-28T02:18:26.075Z,2.17
2022-12-28T02:19:57.631Z,1.85
2022-12-28T02:21:28.844Z,2.09
2022-12-28T02:23:00.124Z,2.09
2022-12-28T02:24:31.346Z,2.10
2022-12-28T02:26:02.547Z,2.13
2022-12-28T02:27:33.850Z,1.87
2022-12-28T02:29:05.375Z,2.32
2022-12-28T02:30:36.781Z,1.77
2022-12-28T02:32:08.149Z,2.06
2022-12-28T02:33:39.628Z,2.04
2022-12-28T02:35:11.001Z,2.29
2022-12-28T02:36:42.290Z,2.06
2022-12-28T02:38:13.741Z,1.84
2022-12-28T02:39:45.121Z,2.37
2022-12-28T02:41:16.306Z,2.09
2022-12-28T02:42:47.574Z,2.28
2022-12-28T02:44:18.814Z,2.04
2022-12-28T02:45:50.295Z,1.61
2022-12-28T02:47:21.896Z,2.04
2022-12-28T02:48:53.227Z,2.11
2022-12-28T02:50:24.566Z,1.92
2022-12-28T02:51:55.911Z,1.98
2022-12-28T02:53:27.164Z,1.76
2022-12-28T02:54:58.632Z,1.61
2022-12-28T02:56:29.958Z,1.94
2022-12-28T02:58:01.238Z,1.93
2022-12-28T02:59:32.878Z,1.86
2022-12-28T03:01:04.410Z,1.87
2022-12-28T03:02:35.896Z,1.96
2022-12-28T03:04:07.218Z,2.20
2022-12-28T03:05:43.410Z,2.05
2022-12-28T03:07:14.768Z,1.94
2022-12-28T03:08:46.045Z,1.95
2022-12-28T03:10:17.322Z,2.39
2022-12-28T03:11:48.649Z,2.20
2022-12-28T03:13:25.014Z,1.94
2022-12-28T03:14:56.480Z,2.12
2022-12-28T03:16:27.848Z,2.33
2022-12-28T03:17:59.093Z,2.26
2022-12-28T03:19:30.515Z,2.35
2022-12-28T03:21:01.714Z,1.81
2022-12-28T03:22:32.938Z,2.35
2022-12-28T03:24:04.168Z,2.14
2022-12-28T03:25:35.569Z,2.15
2022-12-28T03:27:06.800Z,2.01
2022-12-28T03:28:38.072Z,1.97
2022-12-28T03:30:09.280Z,2.07
2022-12-28T03:31:40.497Z,2.09
2022-12-28T03:33:11.933Z,1.87
2022-12-28T03:34:43.201Z,1.58
2022-12-28T03:36:15.709Z,2.04
2022-12-28T03:37:47.581Z,1.94
2022-12-28T03:39:18.832Z,1.65
2022-12-28T03:40:50.103Z,1.83
2022-12-28T03:42:21.402Z,2.02
2022-12-28T03:43:52.654Z,1.66
2022-12-28T03:45:45.241Z,2.06
2022-12-28T03:47:18.785Z,1.88
2022-12-28T03:48:50.030Z,1.80
2022-12-28T03:50:21.382Z,1.83
2022-12-28T03:51:52.715Z,2.12
2022-12-28T03:53:23.974Z,2.02
2022-12-28T03:54:55.377Z,1.98
2022-12-28T03:56:26.682Z,1.49
2022-12-28T03:57:57.913Z,1.88
2022-12-28T03:59:29.142Z,1.83
2022-12-28T04:01:00.616Z,1.92
2022-12-28T04:02:31.956Z,1.84
2022-12-28T04:04:03.155Z,1.82
2022-12-28T04:05:34.453Z,1.55
2022-12-28T04:07:05.644Z,1.76
2022-12-28T04:08:36.847Z,1.96
2022-12-28T04:10:08.076Z,1.70
2022-12-28T04:11:39.322Z,1.76
2022-12-28T04:13:10.513Z,1.83
2022-12-28T04:14:41.714Z,1.90
2022-12-28T04:16:13.918Z,1.88
2022-12-28T04:17:45.207Z,1.78
2022-12-28T04:19:16.432Z,1.20
2022-12-28T04:20:47.663Z,1.58
2022-12-28T04:22:18.946Z,1.56
2022-12-28T04:23:50.276Z,1.84
2022-12-28T04:25:21.593Z,1.87
2022-12-28T04:26:52.858Z,1.85
2022-12-28T04:28:24.114Z,1.69
2022-12-28T04:29:55.852Z,1.85
2022-12-28T04:31:27.159Z,1.74
2022-12-28T04:32:58.568Z,2.02
2022-12-28T04:34:29.805Z,1.75
2022-12-28T04:36:01.294Z,2.03
2022-12-28T04:37:32.573Z,1.86
2022-12-28T04:39:03.832Z,1.96
2022-12-28T04:40:35.088Z,1.77
2022-12-28T04:42:06.518Z,1.93
2022-12-28T04:43:37.990Z,2.02
2022-12-28T04:45:09.215Z,2.07
2022-12-28T04:46:40.521Z,1.80
2022-12-28T04:48:11.825Z,1.52
2022-12-28T04:49:43.071Z,1.77
2022-12-28T04:51:14.456Z,1.94
2022-12-28T04:52:45.753Z,1.80
2022-12-28T04:54:17.314Z,1.97
2022-12-28T04:55:48.643Z,1.99
2022-12-28T04:57:19.896Z,1.83
2022-12-28T04:58:51.165Z,1.94
2022-12-28T05:00:22.621Z,1.92
2022-12-28T05:01:54.422Z,1.75
2022-12-28T05:03:25.782Z,1.83
2022-12-28T05:04:57.186Z,1.88
2022-12-28T05:06:28.515Z,1.84
2022-12-28T05:08:00.176Z,1.65
2022-12-28T05:09:31.431Z,1.82
2022-12-28T05:11:02.754Z,1.76
2022-12-28T05:12:33.969Z,1.61
2022-12-28T05:14:05.306Z,1.60
2022-12-28T05:15:36.510Z,1.89
2022-12-28T05:17:07.823Z,1.48
2022-12-28T05:18:39.310Z,1.72
2022-12-28T05:20:10.663Z,1.89
2022-12-28T05:21:42.304Z,1.75
2022-12-28T05:23:13.473Z,1.81
2022-12-28T05:24:44.773Z,1.84
2022-12-28T05:26:16.122Z,1.64
2022-12-28T05:27:47.647Z,1.68
2022-12-28T05:29:19.203Z,2.01
2022-12-28T05:30:50.624Z,1.91
2022-12-28T05:32:22.077Z,2.08
2022-12-28T05:33:53.322Z,1.82
2022-12-28T05:35:24.706Z,1.86
2022-12-28T05:36:56.082Z,1.40
2022-12-28T05:38:27.530Z,1.54
2022-12-28T05:39:58.807Z,1.62
2022-12-28T05:41:30.052Z,1.58
2022-12-28T05:43:01.339Z,2.15
2022-12-28T05:44:32.780Z,1.91
2022-12-28T05:46:04.313Z,2.09
2022-12-28T05:47:35.890Z,1.71
2022-12-28T05:49:07.218Z,2.04
2022-12-28T05:50:38.439Z,1.71
2022-12-28T05:52:10.210Z,1.60
2022-12-28T05:53:41.517Z,1.90
2022-12-28T05:55:12.768Z,1.99
2022-12-28T05:56:44.341Z,1.82
2022-12-28T05:58:15.595Z,1.91
2022-12-28T05:59:46.820Z,1.96
2022-12-28T06:01:18.233Z,1.62
2022-12-28T06:02:49.677Z,1.85
2022-12-28T06:04:21.142Z,1.78
2022-12-28T06:05:52.545Z,1.79
2022-12-28T06:07:24.898Z,1.75
2022-12-28T06:08:56.307Z,1.63
2022-12-28T06:10:27.517Z,2.16
2022-12-28T06:12:04.202Z,1.87
2022-12-28T06:13:35.588Z,2.14
2022-12-28T06:15:06.845Z,2.00
2022-12-28T06:16:38.793Z,2.03
2022-12-28T06:18:10.318Z,1.90
2022-12-28T06:19:41.666Z,2.15
2022-12-28T06:21:13.054Z,2.02
2022-12-28T06:22:44.469Z,2.29
2022-12-28T06:24:15.681Z,2.08
2022-12-28T06:25:47.635Z,2.00
2022-12-28T06:27:19.291Z,2.14
2022-12-28T06:28:50.621Z,1.67
2022-12-28T06:30:22.206Z,1.78
2022-12-28T06:31:53.633Z,1.77
2022-12-28T06:33:24.871Z,1.77
2022-12-28T06:34:56.110Z,2.11
2022-12-28T06:36:27.409Z,1.80
2022-12-28T06:37:58.749Z,2.11
2022-12-28T06:39:30.014Z,2.14
2022-12-28T06:41:13.891Z,1.92
2022-12-28T06:42:45.686Z,1.93
2022-12-28T06:44:16.925Z,2.03
2022-12-28T06:45:48.205Z,2.10
2022-12-28T06:47:19.529Z,1.76
2022-12-28T06:48:50.814Z,2.25
2022-12-28T06:50:22.120Z,2.05
2022-12-28T06:51:53.689Z,1.98
2022-12-28T06:53:25.033Z,2.03
2022-12-28T06:54:56.414Z,1.97
2022-12-28T06:56:27.740Z,1.82
2022-12-28T06:57:59.109Z,1.82
2022-12-28T06:59:30.334Z,2.18
2022-12-28T07:01:01.617Z,2.01
2022-12-28T07:02:33.259Z,2.09
2022-12-28T07:04:04.552Z,2.16
2022-12-28T07:05:36.034Z,2.02
2022-12-28T07:07:07.653Z,1.56
2022-12-28T07:08:39.024Z,2.06
2022-12-28T07:10:10.327Z,2.27
2022-12-28T07:11:41.652Z,2.01
2022-12-28T07:13:12.857Z,1.94
2022-12-28T07:14:44.291Z,1.82
2022-12-28T07:16:15.620Z,1.88
2022-12-28T07:17:47.318Z,1.83
2022-12-28T07:19:18.649Z,1.90
2022-12-28T07:20:50.311Z,2.05
2022-12-28T07:22:21.538Z,2.01
2022-12-28T07:23:52.964Z,1.98
2022-12-28T07:25:24.218Z,1.86
2022-12-28T07:26:55.505Z,1.75
2022-12-28T07:28:26.896Z,1.85
2022-12-28T07:29:58.510Z,1.86
2022-12-28T07:31:30.114Z,1.90
2022-12-28T07:33:01.500Z,1.85
2022-12-28T07:34:32.739Z,1.86
2022-12-28T07:36:04.275Z,1.90
2022-12-28T07:37:35.659Z,1.44
2022-12-28T07:39:06.929Z,2.05
2022-12-28T07:40:38.205Z,1.84
2022-12-28T07:42:09.408Z,1.94
2022-12-28T07:43:41.326Z,2.06
2022-12-28T07:45:12.614Z,1.85
2022-12-28T07:46:44.613Z,1.78
2022-12-28T07:48:16.019Z,1.86
2022-12-28T07:49:47.777Z,1.74
2022-12-28T07:51:24.400Z,1.76
2022-12-28T07:52:55.740Z,1.63
2022-12-28T07:54:54.910Z,1.76
2022-12-28T07:56:26.594Z,1.88
2022-12-28T07:57:57.835Z,2.16
2022-12-28T07:59:30.991Z,1.75
2022-12-28T08:01:02.816Z,1.87
2022-12-28T08:02:34.278Z,1.81
2022-12-28T08:04:05.788Z,1.88
2022-12-28T08:05:37.103Z,1.75
2022-12-28T08:07:08.574Z,1.77
2022-12-28T08:08:39.821Z,1.76
2022-12-28T08:10:11.168Z,1.74
2022-12-28T08:11:42.645Z,1.43
2022-12-28T08:13:14.194Z,1.90
2022-12-28T08:14:45.703Z,1.54
2022-12-28T08:16:17.115Z,1.78
2022-12-28T08:17:48.429Z,1.86
2022-12-28T08:19:19.895Z,1.89
2022-12-28T08:20:56.361Z,1.78
2022-12-28T08:22:27.613Z,2.05
2022-12-28T08:23:59.069Z,1.63
2022-12-28T08:25:30.400Z,1.44
2022-12-28T08:27:01.644Z,1.63
2022-12-28T08:28:32.911Z,1.82
2022-12-28T08:30:04.221Z,1.83
2022-12-28T08:31:35.892Z,1.78
2022-12-28T08:33:07.519Z,1.81
2022-12-28T08:34:38.721Z,2.00
2022-12-28T08:36:25.015Z,1.97
2022-12-28T08:37:56.331Z,2.12
2022-12-28T08:39:27.724Z,2.11
2022-12-28T08:40:59.174Z,2.12
2022-12-28T08:42:30.408Z,2.07
2022-12-28T08:44:01.787Z,2.15
2022-12-28T08:45:33.177Z,2.00
2022-12-28T08:47:04.648Z,1.77
2022-12-28T08:48:36.088Z,2.06
2022-12-28T08:50:07.831Z,1.95
2022-12-28T08:51:39.237Z,2.23
2022-12-28T08:53:10.570Z,2.18
2022-12-28T08:54:42.262Z,2.06
2022-12-28T08:56:13.566Z,2.22
2022-12-28T08:57:44.841Z,2.21
2022-12-28T08:59:16.173Z,1.83
2022-12-28T09:00:47.814Z,1.85
2022-12-28T09:02:19.268Z,2.04
2022-12-28T09:03:50.788Z,1.96
2022-12-28T09:05:22.290Z,2.03
2022-12-28T09:06:53.524Z,2.25
2022-12-28T09:08:24.926Z,2.41
2022-12-28T09:09:56.224Z,2.11
2022-12-28T09:11:27.655Z,2.42
2022-12-28T09:12:59.045Z,1.93
2022-12-28T09:14:31.436Z,2.14
2022-12-28T09:16:03.105Z,1.91
2022-12-28T09:17:34.652Z,1.95
2022-12-28T09:19:05.966Z,1.91
2022-12-28T09:20:39.877Z,1.73
2022-12-28T09:22:14.424Z,1.90
2022-12-28T09:23:47.123Z,1.98
2022-12-28T09:25:18.601Z,2.05
2022-12-28T09:26:50.267Z,1.78
2022-12-28T09:28:21.536Z,1.96
2022-12-28T09:29:52.908Z,2.11
2022-12-28T09:31:24.179Z,2.01
2022-12-28T09:32:55.629Z,2.20
2022-12-28T09:34:36.652Z,1.87
2022-12-28T09:36:08.861Z,1.87
2022-12-28T09:37:40.270Z,1.77
2022-12-28T09:39:11.586Z,1.75
2022-12-28T09:40:48.026Z,1.71
2022-12-28T09:42:19.362Z,1.82
2022-12-28T09:43:51.237Z,1.74
2022-12-28T09:45:22.518Z,1.95
2022-12-28T09:46:53.904Z,1.92
2022-12-28T09:48:25.409Z,1.80
2022-12-28T09:49:56.786Z,1.79
2022-12-28T09:51:29.035Z,2.13
2022-12-28T09:53:00.407Z,2.06
2022-12-28T09:54:31.878Z,2.07
2022-12-28T09:56:04.645Z,1.81
2022-12-28T09:57:35.981Z,1.86
2022-12-28T09:59:07.732Z,1.90
2022-12-28T10:00:39.170Z,1.76
2022-12-28T10:02:10.565Z,1.85
2022-12-28T10:03:42.540Z,1.68
2022-12-28T10:05:13.981Z,2.11
2022-12-28T10:06:45.656Z,1.98
2022-12-28T10:08:16.928Z,2.23
2022-12-28T10:09:48.302Z,2.60
2022-12-28T10:11:19.670Z,2.41
2022-12-28T10:12:50.994Z,2.23
2022-12-28T10:14:22.414Z,1.94
2022-12-28T10:15:53.717Z,2.06
2022-12-28T10:17:25.069Z,1.86
2022-12-28T10:18:58.337Z,1.93
2022-12-28T10:20:30.191Z,1.88
2022-12-28T10:22:01.794Z,1.74
2022-12-28T10:23:33.163Z,1.94
2022-12-28T10:25:04.455Z,1.64
2022-12-28T10:26:37.449Z,1.83
2022-12-28T10:28:08.693Z,1.68
2022-12-28T10:29:40.113Z,1.54
2022-12-28T10:31:16.518Z,1.81
2022-12-28T10:32:47.792Z,1.76
2022-12-28T10:34:19.177Z,1.81
2022-12-28T10:35:50.430Z,1.62
2022-12-28T10:37:21.792Z,1.62
2022-12-28T10:38:53.106Z,1.65
2022-12-28T10:40:24.409Z,1.69
2022-12-28T10:41:55.633Z,1.65
2022-12-28T10:43:27.039Z,1.62
2022-12-28T10:44:58.441Z,1.75
2022-12-28T10:46:30.005Z,1.62
2022-12-28T10:48:01.437Z,1.50
2022-12-28T10:49:32.648Z,1.37
2022-12-28T10:51:04.015Z,1.33
2022-12-28T10:52:36.601Z,1.41
2022-12-28T10:54:07.956Z,1.49
2022-12-28T10:55:39.405Z,1.42
2022-12-28T10:57:10.893Z,1.39
2022-12-28T10:58:42.442Z,1.60
2022-12-28T11:00:13.633Z,1.32
2022-12-28T11:01:45.241Z,1.32
2022-12-28T11:03:16.799Z,1.35
2022-12-28T11:04:54.293Z,1.42
2022-12-28T11:06:27.383Z,1.41
2022-12-28T11:07:59.335Z,1.17
2022-12-28T11:09:30.671Z,1.23
2022-12-28T11:11:02.234Z,1.37
2022-12-28T11:12:33.668Z,1.31
2022-12-28T11:14:04.957Z,1.25
2022-12-28T11:15:36.359Z,1.09
2022-12-28T11:17:07.752Z,1.25
2022-12-28T11:18:39.116Z,1.24
2022-12-28T11:20:10.364Z,1.16
2022-12-28T11:21:41.723Z,1.18
2022-12-28T11:23:13.287Z,1.19
2022-12-28T11:24:44.684Z,1.12
2022-12-28T11:26:15.990Z,1.13
2022-12-28T11:28:02.348Z,1.20
2022-12-28T11:29:33.628Z,1.25
2022-12-28T11:31:04.902Z,1.22
2022-12-28T11:32:36.443Z,1.92
2022-12-28T11:34:07.787Z,2.04
2022-12-28T11:35:39.063Z,1.54
2022-12-28T11:37:10.335Z,1.00
2022-12-28T11:38:41.643Z,1.18
2022-12-28T11:40:13.249Z,1.03
2022-12-28T11:41:56.392Z,1.11
2022-12-28T11:43:50.749Z,1.13
2022-12-28T11:45:22.260Z,1.18
2022-12-28T11:46:53.740Z,1.59
2022-12-28T11:48:25.128Z,1.24
2022-12-28T11:49:56.775Z,1.14
2022-12-28T11:51:28.351Z,1.41
2022-12-28T11:53:00.038Z,1.36
2022-12-28T11:54:31.304Z,1.09
2022-12-28T11:56:02.585Z,1.28
2022-12-28T11:57:33.973Z,1.17
2022-12-28T11:59:05.559Z,1.11
2022-12-28T12:00:37.378Z,1.31
2022-12-28T12:02:08.846Z,1.40
2022-12-28T12:03:40.215Z,1.29
2022-12-28T12:05:11.725Z,1.40
2022-12-28T12:06:43.196Z,1.30
2022-12-28T12:08:15.403Z,1.44
2022-12-28T12:09:48.379Z,1.33
2022-12-28T12:11:20.291Z,1.60
2022-12-28T12:12:52.185Z,1.39
2022-12-28T12:14:23.579Z,1.08
2022-12-28T12:15:55.340Z,1.39
2022-12-28T12:17:26.986Z,1.25
2022-12-28T12:18:58.846Z,1.50
2022-12-28T12:20:30.156Z,1.32
2022-12-28T12:22:01.534Z,1.41
2022-12-28T12:23:32.792Z,1.17
2022-12-28T12:25:04.185Z,1.14
2022-12-28T12:26:35.573Z,1.54
2022-12-28T12:28:07.043Z,1.31
2022-12-28T12:29:38.359Z,1.75
2022-12-28T12:31:15.053Z,1.66
2022-12-28T12:32:51.635Z,1.50
2022-12-28T12:34:23.159Z,1.39
2022-12-28T12:35:55.497Z,1.41
2022-12-28T12:37:27.068Z,1.53
2022-12-28T12:38:58.651Z,1.59
2022-12-28T12:40:29.957Z,1.38
2022-12-28T12:42:01.416Z,1.63
2022-12-28T12:43:33.066Z,1.64
2022-12-28T12:45:04.281Z,1.58
2022-12-28T12:46:35.511Z,1.58
2022-12-28T12:48:06.892Z,1.58
2022-12-28T12:49:38.192Z,1.42
2022-12-28T12:51:09.807Z,1.63
2022-12-28T12:52:42.397Z,1.64
2022-12-28T12:54:14.589Z,1.60
2022-12-28T12:55:46.088Z,1.36
2022-12-28T12:57:17.504Z,1.35
2022-12-28T12:58:50.865Z,1.69
2022-12-28T13:00:22.381Z,1.66
2022-12-28T13:01:54.202Z,1.67
2022-12-28T13:03:25.794Z,1.61
2022-12-28T13:04:57.209Z,1.50
2022-12-28T13:06:28.698Z,1.85
2022-12-28T13:08:00.106Z,1.40
2022-12-28T13:09:31.370Z,1.64
2022-12-28T13:11:02.607Z,1.91
2022-12-28T13:12:34.234Z,1.44
2022-12-28T13:14:05.785Z,1.42
2022-12-28T13:15:37.246Z,1.55
2022-12-28T13:17:08.532Z,1.88
2022-12-28T13:18:45.091Z,2.31
2022-12-28T13:20:17.181Z,1.80
2022-12-28T13:21:48.603Z,1.66
2022-12-28T13:23:20.014Z,1.29
2022-12-28T13:24:51.656Z,1.55
2022-12-28T13:26:23.143Z,1.67
2022-12-28T13:27:54.589Z,1.80
2022-12-28T13:29:26.000Z,1.75
2022-12-28T13:30:57.650Z,1.58
2022-12-28T13:32:34.201Z,1.60
2022-12-28T13:34:09.249Z,1.67
2022-12-28T13:35:41.335Z,1.64
2022-12-28T13:37:14.025Z,1.75
2022-12-28T13:38:46.151Z,2.01
2022-12-28T13:40:23.134Z,1.82
2022-12-28T13:41:55.991Z,1.68
2022-12-28T13:43:27.417Z,1.71
2022-12-28T13:44:58.882Z,1.67
2022-12-28T13:46:30.264Z,1.67
2022-12-28T13:48:01.888Z,1.80
2022-12-28T13:49:33.516Z,1.52
2022-12-28T13:51:04.764Z,1.68
2022-12-28T13:52:36.171Z,1.61
2022-12-28T13:54:07.568Z,1.58
2022-12-28T13:55:39.322Z,1.78
2022-12-28T13:57:44.658Z,1.62
2022-12-28T13:59:17.628Z,1.46
2022-12-28T14:00:49.000Z,1.56
2022-12-28T14:02:20.493Z,1.54
2022-12-28T14:03:52.152Z,1.74
2022-12-28T14:05:23.944Z,1.55
2022-12-28T14:06:56.494Z,1.79
2022-12-28T14:08:28.614Z,1.71
2022-12-28T14:10:00.010Z,1.49
2022-12-28T14:11:31.346Z,1.57
2022-12-28T14:13:02.534Z,1.69
2022-12-28T14:14:33.833Z,1.72
2022-12-28T14:16:05.510Z,1.74
2022-12-28T14:17:38.189Z,1.60
2022-12-28T14:19:09.660Z,2.10
2022-12-28T14:20:40.964Z,1.85
2022-12-28T14:22:14.134Z,1.76
2022-12-28T14:23:45.668Z,1.68
2022-12-28T14:25:17.112Z,1.54
2022-12-28T14:26:48.371Z,1.69
2022-12-28T14:28:19.692Z,1.75
2022-12-28T14:29:50.949Z,1.64
2022-12-28T14:31:27.615Z,1.75
2022-12-28T14:32:59.439Z,1.54
2022-12-28T14:34:30.838Z,1.74
2022-12-28T14:36:02.240Z,1.56
2022-12-28T14:37:39.068Z,1.51
2022-12-28T14:39:10.374Z,1.54
2022-12-28T14:40:41.821Z,1.68
2022-12-28T14:42:13.116Z,1.53
2022-12-28T14:43:44.711Z,1.62
2022-12-28T14:45:16.001Z,1.86
2022-12-28T14:46:54.224Z,1.55
2022-12-28T14:48:25.716Z,1.75
2022-12-28T14:49:57.509Z,1.57
2022-12-28T14:51:28.924Z,1.66
2022-12-28T14:53:00.383Z,1.65
2022-12-28T14:54:31.845Z,1.54
2022-12-28T14:56:09.506Z,1.47
2022-12-28T14:57:40.816Z,1.61
2022-12-28T14:59:12.257Z,1.47
2022-12-28T15:00:43.626Z,1.48
2022-12-28T15:02:15.155Z,1.17
2022-12-28T15:03:46.646Z,1.36
2022-12-28T15:05:18.191Z,1.64
2022-12-28T15:06:49.448Z,1.42
2022-12-28T15:08:20.724Z,1.52
2022-12-28T15:09:52.111Z,1.44
2022-12-28T15:11:23.537Z,1.60
2022-12-28T15:12:55.369Z,1.38
2022-12-28T15:14:26.799Z,1.51
2022-12-28T15:15:58.191Z,1.52
2022-12-28T15:17:33.293Z,1.48
2022-12-28T15:19:05.012Z,1.41
2022-12-28T15:20:36.598Z,1.61
2022-12-28T15:22:08.186Z,1.61
2022-12-28T15:23:39.619Z,1.57
2022-12-28T15:25:11.065Z,1.44
2022-12-28T15:26:42.479Z,1.43
2022-12-28T15:28:13.824Z,1.29
2022-12-28T15:30:04.922Z,1.49
2022-12-28T15:31:37.247Z,1.46
2022-12-28T15:33:08.722Z,1.71
2022-12-28T15:34:40.109Z,1.40
2022-12-28T15:36:16.983Z,1.67
2022-12-28T15:37:48.891Z,1.45
2022-12-28T15:39:20.284Z,1.44
2022-12-28T15:40:51.663Z,1.57
2022-12-28T15:42:23.038Z,1.51
2022-12-28T15:43:54.629Z,1.51
2022-12-28T15:45:25.988Z,1.77
2022-12-28T15:46:57.371Z,1.33
2022-12-28T15:48:28.744Z,1.45
2022-12-28T15:50:00.168Z,1.37
2022-12-28T15:51:31.620Z,1.46
2022-12-28T15:53:03.050Z,1.55
2022-12-28T15:54:34.395Z,1.55
2022-12-28T15:56:05.851Z,1.38
2022-12-28T15:57:37.294Z,1.52
2022-12-28T15:59:08.575Z,1.66
2022-12-28T16:00:45.721Z,1.36
2022-12-28T16:02:19.137Z,1.40
2022-12-28T16:03:50.771Z,1.39
2022-12-28T16:05:22.309Z,1.50
2022-12-28T16:06:53.755Z,1.55
2022-12-28T16:08:25.154Z,1.32
2022-12-28T16:09:56.781Z,1.33
2022-12-28T16:11:28.369Z,1.44
2022-12-28T16:12:59.695Z,1.65
2022-12-28T16:14:31.096Z,1.55
2022-12-28T16:16:02.501Z,1.63
2022-12-28T16:17:33.987Z,1.59
2022-12-28T16:19:05.198Z,1.50
2022-12-28T16:20:36.577Z,1.64
2022-12-28T16:22:07.822Z,1.74
2022-12-28T16:23:44.057Z,1.43
2022-12-28T16:25:15.419Z,1.61
2022-12-28T16:26:46.808Z,1.78
2022-12-28T16:28:18.164Z,1.58
2022-12-28T16:29:53.951Z,1.58
2022-12-28T16:31:28.349Z,1.50
2022-12-28T16:32:59.620Z,1.63
2022-12-28T16:34:30.895Z,1.60
2022-12-28T16:36:02.217Z,1.72
2022-12-28T16:37:33.461Z,1.66
2022-12-28T16:39:04.702Z,1.35
2022-12-28T16:40:36.223Z,1.41
2022-12-28T16:42:07.637Z,1.38
2022-12-28T16:43:39.437Z,1.51
2022-12-28T16:45:10.920Z,1.24
2022-12-28T16:46:42.443Z,1.08
2022-12-28T16:48:14.027Z,1.36
2022-12-28T16:49:46.888Z,1.43
2022-12-28T16:51:18.256Z,1.51
2022-12-28T16:52:49.974Z,1.63
2022-12-28T16:54:21.373Z,1.42
2022-12-28T16:55:52.856Z,1.73
2022-12-28T16:57:24.086Z,1.60
2022-12-28T16:58:55.704Z,1.40
2022-12-28T17:00:27.165Z,1.53
2022-12-28T17:01:58.633Z,1.36
2022-12-28T17:03:30.238Z,1.39
2022-12-28T17:05:01.608Z,1.24
2022-12-28T17:06:33.058Z,1.19
2022-12-28T17:08:04.443Z,1.33
2022-12-28T17:09:35.926Z,1.48
2022-12-28T17:11:07.178Z,1.39
2022-12-28T17:12:38.484Z,1.44
2022-12-28T17:14:09.765Z,1.44
2022-12-28T17:15:41.358Z,1.38
2022-12-28T17:17:12.598Z,1.36
2022-12-28T17:18:43.935Z,1.47
2022-12-28T17:20:15.848Z,1.45
2022-12-28T17:21:47.271Z,1.47
2022-12-28T17:23:18.724Z,1.22
2022-12-28T17:24:50.122Z,1.44
2022-12-28T17:26:21.485Z,1.37
2022-12-28T17:27:52.970Z,1.30
2022-12-28T17:29:24.654Z,1.31
2022-12-28T17:30:55.946Z,1.63
2022-12-28T17:32:27.393Z,1.76
2022-12-28T17:33:59.016Z,1.28
2022-12-28T17:35:30.270Z,1.37
2022-12-28T17:37:02.121Z,1.21
2022-12-28T17:38:33.810Z,1.35
2022-12-28T17:40:05.223Z,1.41
2022-12-28T17:41:36.489Z,1.48
2022-12-28T17:43:08.033Z,1.67
2022-12-28T17:44:39.376Z,1.53
2022-12-28T17:46:10.756Z,1.54
2022-12-28T17:47:42.215Z,1.77
2022-12-28T17:49:13.712Z,1.29
2022-12-28T17:50:45.162Z,1.54
2022-12-28T17:52:16.500Z,1.50
2022-12-28T17:53:47.858Z,1.40
2022-12-28T17:55:19.225Z,1.58
2022-12-28T17:56:50.588Z,1.65
2022-12-28T17:58:21.968Z,1.58
2022-12-28T17:59:53.284Z,1.64
2022-12-28T18:01:24.923Z,1.58
2022-12-28T18:02:57.030Z,1.44
2022-12-28T18:04:29.528Z,1.57
2022-12-28T18:06:00.765Z,1.58
2022-12-28T18:07:32.015Z,1.45
2022-12-28T18:09:03.258Z,1.67
2022-12-28T18:10:34.707Z,1.71
2022-12-28T18:12:05.900Z,1.55
2022-12-28T18:13:37.203Z,1.61
2022-12-28T18:15:08.483Z,1.27
2022-12-28T18:16:40.326Z,1.51
2022-12-28T18:18:11.696Z,1.35
2022-12-28T18:19:44.535Z,1.53
2022-12-28T18:21:21.140Z,1.56
2022-12-28T18:22:52.816Z,1.46
2022-12-28T18:24:24.092Z,1.55
2022-12-28T18:25:55.346Z,1.39
2022-12-28T18:27:33.103Z,1.34
2022-12-28T18:29:04.463Z,1.52
2022-12-28T18:30:36.422Z,1.48
2022-12-28T18:32:07.787Z,1.35
2022-12-28T18:33:39.173Z,1.38
2022-12-28T18:35:10.399Z,1.53
2022-12-28T18:36:41.673Z,1.46
2022-12-28T18:38:13.076Z,1.38
2022-12-28T18:39:44.526Z,1.67
2022-12-28T18:41:21.012Z,1.61
2022-12-28T18:42:52.239Z,1.68
2022-12-28T18:44:23.510Z,1.52
2022-12-28T18:45:54.802Z,1.52
2022-12-28T18:47:26.415Z,1.54
2022-12-28T18:48:57.694Z,1.58
2022-12-28T18:50:29.275Z,1.51
2022-12-28T18:52:00.623Z,1.51
2022-12-28T18:53:32.305Z,1.78
2022-12-28T18:55:03.700Z,1.65
2022-12-28T18:56:35.331Z,1.70
2022-12-28T18:58:06.792Z,1.48
2022-12-28T18:59:38.215Z,1.59
2022-12-28T19:01:16.440Z,1.70
2022-12-28T19:03:04.428Z,1.80
2022-12-28T19:04:36.326Z,1.82
2022-12-28T19:06:08.105Z,1.49
2022-12-28T19:07:42.103Z,1.53
2022-12-28T19:09:17.187Z,1.62
2022-12-28T19:10:48.482Z,1.45
2022-12-28T19:12:19.693Z,1.55
2022-12-28T19:13:51.090Z,1.58
2022-12-28T19:15:27.834Z,1.72
2022-12-28T19:16:59.614Z,1.36
2022-12-28T19:18:35.948Z,1.40
2022-12-28T19:20:07.213Z,1.55
2022-12-28T19:21:38.689Z,1.41
2022-12-28T19:23:10.038Z,1.27
2022-12-28T19:24:41.474Z,1.50
2022-12-28T19:26:13.004Z,1.46
2022-12-28T19:27:44.615Z,1.47
2022-12-28T19:29:15.933Z,1.49
2022-12-28T19:30:47.290Z,1.31
2022-12-28T19:32:18.659Z,1.40
2022-12-28T19:33:50.262Z,1.49
2022-12-28T19:35:36.603Z,1.62
2022-12-28T19:37:08.066Z,1.35
2022-12-28T19:38:39.438Z,1.47
2022-12-28T19:40:10.679Z,1.42
2022-12-28T19:41:47.019Z,1.38
2022-12-28T19:43:18.450Z,1.53
2022-12-28T19:44:49.684Z,1.36
2022-12-28T19:46:21.645Z,1.38
2022-12-28T19:47:52.989Z,1.37
2022-12-28T19:49:24.285Z,1.29
2022-12-28T19:50:55.600Z,1.46
2022-12-28T19:52:26.968Z,1.28
2022-12-28T19:53:58.631Z,1.38
2022-12-28T19:55:29.992Z,1.49
2022-12-28T19:57:01.590Z,1.70
2022-12-28T19:58:35.169Z,1.60
2022-12-28T20:00:07.165Z,1.14
2022-12-28T20:01:39.836Z,0.90
2022-12-28T20:03:11.321Z,1.15
2022-12-28T20:04:48.088Z,1.27
2022-12-28T20:06:19.520Z,1.27
2022-12-28T20:07:50.995Z,1.33
2022-12-28T20:09:27.315Z,1.23
2022-12-28T20:10:58.678Z,1.20
2022-12-28T20:12:30.139Z,1.09
2022-12-28T20:14:01.936Z,1.23
2022-12-28T20:15:33.365Z,1.32
2022-12-28T20:17:04.800Z,1.38
2022-12-28T20:18:36.121Z,1.38
2022-12-28T20:20:07.465Z,1.35
2022-12-28T20:21:38.918Z,1.45
2022-12-28T20:23:10.230Z,1.25
2022-12-28T20:24:41.463Z,1.43